sensor_id;sensor_type;location;lat;lon;timestamp;temperature;humidity
65369;HTU21D;51970;53.484;49.488;2023-03-23T00:01:20;2.13;81.81
65369;HTU21D;51970;53.484;49.488;2023-03-23T00:03:53;2.20;81.36
65369;HTU21D;51970;53.484;49.488;2023-03-23T00:06:20;2.17;81.40
65369;HTU21D;51970;53.484;49.488;2023-03-23T00:08:51;2.15;81.29
65369;HTU21D;51970;53.484;49.488;2023-03-23T00:11:24;2.03;81.66
65369;HTU21D;51970;53.484;49.488;2023-03-23T00:13:54;2.01;81.86
65369;HTU21D;51970;53.484;49.488;2023-03-23T00:16:24;1.99;82.06
65369;HTU21D;51970;53.484;49.488;2023-03-23T00:19:04;2.00;82.25
65369;HTU21D;51970;53.484;49.488;2023-03-23T00:21:33;1.99;82.24
65369;HTU21D;51970;53.484;49.488;2023-03-23T00:24:17;2.13;82.24
65369;HTU21D;51970;53.484;49.488;2023-03-23T00:26:47;2.13;81.60
65369;HTU21D;51970;53.484;49.488;2023-03-23T00:29:26;2.21;81.42
65369;HTU21D;51970;53.484;49.488;2023-03-23T00:31:52;2.20;81.57
65369;HTU21D;51970;53.484;49.488;2023-03-23T00:34:21;2.15;81.52
65369;HTU21D;51970;53.484;49.488;2023-03-23T00:36:52;2.03;81.72
65369;HTU21D;51970;53.484;49.488;2023-03-23T00:39:23;1.97;81.75
65369;HTU21D;51970;53.484;49.488;2023-03-23T00:41:56;1.85;82.42
65369;HTU21D;51970;53.484;49.488;2023-03-23T00:44:28;1.87;82.35
65369;HTU21D;51970;53.484;49.488;2023-03-23T00:46:56;1.87;82.21
65369;HTU21D;51970;53.484;49.488;2023-03-23T00:49:25;1.86;82.07
65369;HTU21D;51970;53.484;49.488;2023-03-23T00:51:53;1.80;81.54
65369;HTU21D;51970;53.484;49.488;2023-03-23T00:54:21;1.72;82.26
65369;HTU21D;51970;53.484;49.488;2023-03-23T00:56:49;1.76;82.71
65369;HTU21D;51970;53.484;49.488;2023-03-23T00:59:16;1.72;82.32
65369;HTU21D;51970;53.484;49.488;2023-03-23T01:01:49;1.65;82.13
65369;HTU21D;51970;53.484;49.488;2023-03-23T01:04:15;1.65;82.45
65369;HTU21D;51970;53.484;49.488;2023-03-23T01:06:43;1.58;82.29
65369;HTU21D;51970;53.484;49.488;2023-03-23T01:09:15;1.48;82.51
65369;HTU21D;51970;53.484;49.488;2023-03-23T01:11:42;1.41;82.84
65369;HTU21D;51970;53.484;49.488;2023-03-23T01:14:09;1.45;82.75
65369;HTU21D;51970;53.484;49.488;2023-03-23T01:16:35;1.38;82.36
65369;HTU21D;51970;53.484;49.488;2023-03-23T01:19:02;1.32;82.40
65369;HTU21D;51970;53.484;49.488;2023-03-23T01:21:29;1.28;82.54
65369;HTU21D;51970;53.484;49.488;2023-03-23T01:23:55;1.29;82.43
65369;HTU21D;51970;53.484;49.488;2023-03-23T01:26:23;1.25;82.29
65369;HTU21D;51970;53.484;49.488;2023-03-23T01:28:50;1.21;82.19
65369;HTU21D;51970;53.484;49.488;2023-03-23T01:31:19;1.18;82.57
65369;HTU21D;51970;53.484;49.488;2023-03-23T01:33:46;1.17;82.61
65369;HTU21D;51970;53.484;49.488;2023-03-23T01:36:15;1.16;82.92
65369;HTU21D;51970;53.484;49.488;2023-03-23T01:38:44;1.13;82.55
65369;HTU21D;51970;53.484;49.488;2023-03-23T01:41:11;1.08;82.38
65369;HTU21D;51970;53.484;49.488;2023-03-23T01:44:02;0.99;82.66
65369;HTU21D;51970;53.484;49.488;2023-03-23T01:46:34;0.93;82.68
65369;HTU21D;51970;53.484;49.488;2023-03-23T01:49:28;0.84;83.12
65369;HTU21D;51970;53.484;49.488;2023-03-23T01:52:04;0.90;83.09
65369;HTU21D;51970;53.484;49.488;2023-03-23T01:54:32;0.94;83.10
65369;HTU21D;51970;53.484;49.488;2023-03-23T01:57:02;0.98;82.96
65369;HTU21D;51970;53.484;49.488;2023-03-23T01:59:30;1.01;82.98
65369;HTU21D;51970;53.484;49.488;2023-03-23T02:02:00;1.07;82.95
65369;HTU21D;51970;53.484;49.488;2023-03-23T02:04:39;1.08;82.71
65369;HTU21D;51970;53.484;49.488;2023-03-23T02:07:08;0.97;83.02
65369;HTU21D;51970;53.484;49.488;2023-03-23T02:09:36;0.95;83.12
65369;HTU21D;51970;53.484;49.488;2023-03-23T02:12:04;0.99;83.25
65369;HTU21D;51970;53.484;49.488;2023-03-23T02:14:33;0.93;83.20
65369;HTU21D;51970;53.484;49.488;2023-03-23T02:17:21;0.95;83.00
65369;HTU21D;51970;53.484;49.488;2023-03-23T02:20:06;0.90;83.36
65369;HTU21D;51970;53.484;49.488;2023-03-23T02:25:59;0.92;83.67
65369;HTU21D;51970;53.484;49.488;2023-03-23T02:31:46;1.18;82.45
65369;HTU21D;51970;53.484;49.488;2023-03-23T02:34:17;1.18;82.30
65369;HTU21D;51970;53.484;49.488;2023-03-23T02:37:02;1.23;82.40
65369;HTU21D;51970;53.484;49.488;2023-03-23T02:39:47;1.27;82.40
65369;HTU21D;51970;53.484;49.488;2023-03-23T02:42:20;1.36;82.35
65369;HTU21D;51970;53.484;49.488;2023-03-23T02:44:48;1.45;82.69
65369;HTU21D;51970;53.484;49.488;2023-03-23T02:47:25;1.52;82.79
65369;HTU21D;51970;53.484;49.488;2023-03-23T02:49:56;1.58;82.43
65369;HTU21D;51970;53.484;49.488;2023-03-23T02:52:29;1.65;82.56
65369;HTU21D;51970;53.484;49.488;2023-03-23T02:54:57;1.77;82.26
65369;HTU21D;51970;53.484;49.488;2023-03-23T02:57:28;1.83;82.13
65369;HTU21D;51970;53.484;49.488;2023-03-23T02:59:55;1.92;82.19
65369;HTU21D;51970;53.484;49.488;2023-03-23T03:05:17;2.19;81.95
65369;HTU21D;51970;53.484;49.488;2023-03-23T03:08:11;2.26;82.23
65369;HTU21D;51970;53.484;49.488;2023-03-23T03:11:18;2.58;81.45
65369;HTU21D;51970;53.484;49.488;2023-03-23T03:13:59;2.70;80.70
65369;HTU21D;51970;53.484;49.488;2023-03-23T03:17:00;2.79;80.35
65369;HTU21D;51970;53.484;49.488;2023-03-23T03:20:07;2.82;79.72
65369;HTU21D;51970;53.484;49.488;2023-03-23T03:22:41;2.95;79.77
65369;HTU21D;51970;53.484;49.488;2023-03-23T03:25:11;2.99;79.85
65369;HTU21D;51970;53.484;49.488;2023-03-23T03:27:45;2.98;79.69
65369;HTU21D;51970;53.484;49.488;2023-03-23T03:30:31;2.97;79.56
65369;HTU21D;51970;53.484;49.488;2023-03-23T03:34:16;3.02;79.23
65369;HTU21D;51970;53.484;49.488;2023-03-23T03:37:48;3.12;79.43
65369;HTU21D;51970;53.484;49.488;2023-03-23T03:40:17;3.10;79.46
65369;HTU21D;51970;53.484;49.488;2023-03-23T03:42:44;3.13;79.29
65369;HTU21D;51970;53.484;49.488;2023-03-23T03:45:24;3.23;78.85
65369;HTU21D;51970;53.484;49.488;2023-03-23T03:48:18;3.31;78.56
65369;HTU21D;51970;53.484;49.488;2023-03-23T03:50:49;3.31;78.47
65369;HTU21D;51970;53.484;49.488;2023-03-23T03:53:18;3.39;78.50
65369;HTU21D;51970;53.484;49.488;2023-03-23T03:55:57;3.49;78.01
65369;HTU21D;51970;53.484;49.488;2023-03-23T03:58:27;3.55;78.09
65369;HTU21D;51970;53.484;49.488;2023-03-23T04:01:06;3.61;77.57
65369;HTU21D;51970;53.484;49.488;2023-03-23T04:03:39;3.67;77.50
65369;HTU21D;51970;53.484;49.488;2023-03-23T04:06:14;3.75;77.18
65369;HTU21D;51970;53.484;49.488;2023-03-23T04:09:11;3.76;77.12
65369;HTU21D;51970;53.484;49.488;2023-03-23T04:12:02;3.82;77.10
65369;HTU21D;51970;53.484;49.488;2023-03-23T04:14:52;3.98;77.07
65369;HTU21D;51970;53.484;49.488;2023-03-23T04:17:47;4.10;76.86
65369;HTU21D;51970;53.484;49.488;2023-03-23T04:20:21;4.22;76.70
65369;HTU21D;51970;53.484;49.488;2023-03-23T04:22:59;4.28;76.44
65369;HTU21D;51970;53.484;49.488;2023-03-23T04:26:00;4.39;76.32
65369;HTU21D;51970;53.484;49.488;2023-03-23T04:28:51;4.42;76.11
65369;HTU21D;51970;53.484;49.488;2023-03-23T04:31:35;4.49;75.31
65369;HTU21D;51970;53.484;49.488;2023-03-23T04:34:24;4.51;75.38
65369;HTU21D;51970;53.484;49.488;2023-03-23T04:37:01;4.57;75.14
65369;HTU21D;51970;53.484;49.488;2023-03-23T04:39:31;4.62;74.70
65369;HTU21D;51970;53.484;49.488;2023-03-23T04:42:00;4.58;74.75
65369;HTU21D;51970;53.484;49.488;2023-03-23T04:45:13;4.60;74.94
65369;HTU21D;51970;53.484;49.488;2023-03-23T04:47:50;4.65;74.39
65369;HTU21D;51970;53.484;49.488;2023-03-23T04:50:32;4.79;73.95
65369;HTU21D;51970;53.484;49.488;2023-03-23T04:53:17;4.81;73.55
65369;HTU21D;51970;53.484;49.488;2023-03-23T04:56:57;4.91;73.24
65369;HTU21D;51970;53.484;49.488;2023-03-23T04:59:47;4.89;73.32
65369;HTU21D;51970;53.484;49.488;2023-03-23T05:02:14;4.93;73.09
65369;HTU21D;51970;53.484;49.488;2023-03-23T05:04:47;4.92;73.00
65369;HTU21D;51970;53.484;49.488;2023-03-23T05:07:20;4.95;73.06
65369;HTU21D;51970;53.484;49.488;2023-03-23T05:10:04;5.05;72.51
65369;HTU21D;51970;53.484;49.488;2023-03-23T05:12:44;5.03;72.52
65369;HTU21D;51970;53.484;49.488;2023-03-23T05:15:15;5.02;72.66
65369;HTU21D;51970;53.484;49.488;2023-03-23T05:17:42;5.09;72.63
65369;HTU21D;51970;53.484;49.488;2023-03-23T05:20:30;5.18;72.27
65369;HTU21D;51970;53.484;49.488;2023-03-23T05:23:23;5.27;71.90
65369;HTU21D;51970;53.484;49.488;2023-03-23T05:25:56;5.41;71.71
65369;HTU21D;51970;53.484;49.488;2023-03-23T05:28:28;5.49;71.64
65369;HTU21D;51970;53.484;49.488;2023-03-23T05:31:10;5.50;71.66
65369;HTU21D;51970;53.484;49.488;2023-03-23T05:33:52;5.56;71.44
65369;HTU21D;51970;53.484;49.488;2023-03-23T05:36:33;5.68;71.24
65369;HTU21D;51970;53.484;49.488;2023-03-23T05:39:23;5.69;70.84
65369;HTU21D;51970;53.484;49.488;2023-03-23T05:41:53;5.75;70.71
65369;HTU21D;51970;53.484;49.488;2023-03-23T05:44:23;5.76;70.81
65369;HTU21D;51970;53.484;49.488;2023-03-23T05:47:04;5.86;70.57
65369;HTU21D;51970;53.484;49.488;2023-03-23T05:49:34;5.98;70.33
65369;HTU21D;51970;53.484;49.488;2023-03-23T05:52:05;6.07;70.05
65369;HTU21D;51970;53.484;49.488;2023-03-23T05:54:47;6.17;69.78
65369;HTU21D;51970;53.484;49.488;2023-03-23T05:57:15;6.24;69.54
65369;HTU21D;51970;53.484;49.488;2023-03-23T05:59:50;6.37;69.31
65369;HTU21D;51970;53.484;49.488;2023-03-23T06:03:19;6.42;68.86
65369;HTU21D;51970;53.484;49.488;2023-03-23T06:06:21;6.42;68.76
65369;HTU21D;51970;53.484;49.488;2023-03-23T06:09:20;6.49;68.76
65369;HTU21D;51970;53.484;49.488;2023-03-23T06:11:48;6.57;68.70
65369;HTU21D;51970;53.484;49.488;2023-03-23T06:14:20;6.73;68.26
65369;HTU21D;51970;53.484;49.488;2023-03-23T06:16:48;6.83;67.71
65369;HTU21D;51970;53.484;49.488;2023-03-23T06:19:21;6.84;67.76
65369;HTU21D;51970;53.484;49.488;2023-03-23T06:22:09;6.96;67.55
65369;HTU21D;51970;53.484;49.488;2023-03-23T06:24:37;6.97;67.64
65369;HTU21D;51970;53.484;49.488;2023-03-23T06:27:06;6.98;67.38
65369;HTU21D;51970;53.484;49.488;2023-03-23T06:29:33;6.98;67.35
65369;HTU21D;51970;53.484;49.488;2023-03-23T06:32:25;7.00;67.28
65369;HTU21D;51970;53.484;49.488;2023-03-23T06:35:13;7.07;67.39
65369;HTU21D;51970;53.484;49.488;2023-03-23T06:37:42;7.19;66.93
65369;HTU21D;51970;53.484;49.488;2023-03-23T06:40:40;7.44;66.29
65369;HTU21D;51970;53.484;49.488;2023-03-23T06:43:14;7.74;65.26
65369;HTU21D;51970;53.484;49.488;2023-03-23T06:45:44;8.01;64.84
65369;HTU21D;51970;53.484;49.488;2023-03-23T06:48:26;8.05;64.37
65369;HTU21D;51970;53.484;49.488;2023-03-23T06:51:32;8.21;64.02
65369;HTU21D;51970;53.484;49.488;2023-03-23T06:54:18;8.53;63.08
65369;HTU21D;51970;53.484;49.488;2023-03-23T06:56:47;8.70;62.12
65369;HTU21D;51970;53.484;49.488;2023-03-23T07:00:16;8.71;61.74
65369;HTU21D;51970;53.484;49.488;2023-03-23T07:03:08;8.79;61.93
65369;HTU21D;51970;53.484;49.488;2023-03-23T07:05:39;8.87;61.68
65369;HTU21D;51970;53.484;49.488;2023-03-23T07:08:31;9.01;61.19
65369;HTU21D;51970;53.484;49.488;2023-03-23T07:11:02;9.26;59.55
65369;HTU21D;51970;53.484;49.488;2023-03-23T07:14:10;9.08;59.31
65369;HTU21D;51970;53.484;49.488;2023-03-23T07:16:49;9.10;60.07
65369;HTU21D;51970;53.484;49.488;2023-03-23T07:19:50;9.36;58.97
65369;HTU21D;51970;53.484;49.488;2023-03-23T07:22:20;9.53;58.95
65369;HTU21D;51970;53.484;49.488;2023-03-23T07:25:14;9.57;58.49
65369;HTU21D;51970;53.484;49.488;2023-03-23T07:28:01;9.82;57.44
65369;HTU21D;51970;53.484;49.488;2023-03-23T07:30:35;10.18;56.00
65369;HTU21D;51970;53.484;49.488;2023-03-23T07:33:33;10.21;55.16
65369;HTU21D;51970;53.484;49.488;2023-03-23T07:36:04;10.21;55.34
65369;HTU21D;51970;53.484;49.488;2023-03-23T07:38:30;10.07;53.85
65369;HTU21D;51970;53.484;49.488;2023-03-23T07:41:19;10.39;52.72
65369;HTU21D;51970;53.484;49.488;2023-03-23T07:43:51;10.63;52.72
65369;HTU21D;51970;53.484;49.488;2023-03-23T07:46:22;10.84;51.46
65369;HTU21D;51970;53.484;49.488;2023-03-23T07:48:56;10.71;51.32
65369;HTU21D;51970;53.484;49.488;2023-03-23T07:51:44;10.71;51.64
65369;HTU21D;51970;53.484;49.488;2023-03-23T07:54:14;10.56;51.45
65369;HTU21D;51970;53.484;49.488;2023-03-23T07:57:08;10.48;50.56
65369;HTU21D;51970;53.484;49.488;2023-03-23T07:59:40;10.70;50.62
65369;HTU21D;51970;53.484;49.488;2023-03-23T08:02:30;10.77;50.40
65369;HTU21D;51970;53.484;49.488;2023-03-23T08:05:51;10.25;50.97
65369;HTU21D;51970;53.484;49.488;2023-03-23T08:09:15;10.27;51.71
65369;HTU21D;51970;53.484;49.488;2023-03-23T08:12:09;10.70;50.85
65369;HTU21D;51970;53.484;49.488;2023-03-23T08:15:32;11.07;50.04
65369;HTU21D;51970;53.484;49.488;2023-03-23T08:19:01;11.12;49.71
65369;HTU21D;51970;53.484;49.488;2023-03-23T08:21:51;11.07;48.52
65369;HTU21D;51970;53.484;49.488;2023-03-23T08:25:11;10.79;50.63
65369;HTU21D;51970;53.484;49.488;2023-03-23T08:28:35;10.85;49.52
65369;HTU21D;51970;53.484;49.488;2023-03-23T08:32:00;10.97;49.33
65369;HTU21D;51970;53.484;49.488;2023-03-23T08:35:18;10.85;49.63
65369;HTU21D;51970;53.484;49.488;2023-03-23T08:38:50;10.70;49.90
65369;HTU21D;51970;53.484;49.488;2023-03-23T08:42:12;10.70;50.09
65369;HTU21D;51970;53.484;49.488;2023-03-23T08:44:50;10.67;49.27
65369;HTU21D;51970;53.484;49.488;2023-03-23T08:47:48;10.74;49.94
65369;HTU21D;51970;53.484;49.488;2023-03-23T08:50:56;10.89;49.21
65369;HTU21D;51970;53.484;49.488;2023-03-23T08:53:46;10.97;48.55
65369;HTU21D;51970;53.484;49.488;2023-03-23T08:56:41;10.90;48.20
65369;HTU21D;51970;53.484;49.488;2023-03-23T09:00:31;11.30;48.00
65369;HTU21D;51970;53.484;49.488;2023-03-23T09:04:46;11.54;46.87
65369;HTU21D;51970;53.484;49.488;2023-03-23T09:08:12;11.45;47.33
65369;HTU21D;51970;53.484;49.488;2023-03-23T09:10:51;11.46;46.71
65369;HTU21D;51970;53.484;49.488;2023-03-23T09:13:53;11.57;46.83
65369;HTU21D;51970;53.484;49.488;2023-03-23T09:16:43;11.56;46.57
65369;HTU21D;51970;53.484;49.488;2023-03-23T09:19:47;11.61;45.64
65369;HTU21D;51970;53.484;49.488;2023-03-23T09:24:15;11.57;45.89
65369;HTU21D;51970;53.484;49.488;2023-03-23T09:28:13;11.47;45.72
65369;HTU21D;51970;53.484;49.488;2023-03-23T09:31:58;11.74;46.01
65369;HTU21D;51970;53.484;49.488;2023-03-23T09:35:27;11.96;46.74
65369;HTU21D;51970;53.484;49.488;2023-03-23T09:38:21;12.04;46.68
65369;HTU21D;51970;53.484;49.488;2023-03-23T09:44:41;11.97;45.60
65369;HTU21D;51970;53.484;49.488;2023-03-23T09:51:41;12.32;45.24
65369;HTU21D;51970;53.484;49.488;2023-03-23T09:54:31;12.62;43.88
65369;HTU21D;51970;53.484;49.488;2023-03-23T09:57:01;12.55;44.01
65369;HTU21D;51970;53.484;49.488;2023-03-23T10:00:22;12.34;44.41
65369;HTU21D;51970;53.484;49.488;2023-03-23T10:03:18;12.13;45.45
65369;HTU21D;51970;53.484;49.488;2023-03-23T10:06:50;12.14;45.14
65369;HTU21D;51970;53.484;49.488;2023-03-23T10:10:01;12.08;45.67
65369;HTU21D;51970;53.484;49.488;2023-03-23T10:13:02;11.96;45.12
65369;HTU21D;51970;53.484;49.488;2023-03-23T10:15:58;11.93;45.49
65369;HTU21D;51970;53.484;49.488;2023-03-23T10:19:37;11.69;46.97
65369;HTU21D;51970;53.484;49.488;2023-03-23T10:22:12;11.61;46.88
65369;HTU21D;51970;53.484;49.488;2023-03-23T10:28:32;12.35;45.85
65369;HTU21D;51970;53.484;49.488;2023-03-23T10:31:38;12.58;45.61
65369;HTU21D;51970;53.484;49.488;2023-03-23T10:37:32;12.35;45.90
65369;HTU21D;51970;53.484;49.488;2023-03-23T10:40:19;12.74;45.64
65369;HTU21D;51970;53.484;49.488;2023-03-23T10:43:28;12.56;46.81
65369;HTU21D;51970;53.484;49.488;2023-03-23T10:46:33;12.35;46.98
65369;HTU21D;51970;53.484;49.488;2023-03-23T10:50:06;12.37;47.67
65369;HTU21D;51970;53.484;49.488;2023-03-23T10:53:26;12.29;47.83
65369;HTU21D;51970;53.484;49.488;2023-03-23T10:56:44;12.16;47.60
65369;HTU21D;51970;53.484;49.488;2023-03-23T10:59:28;12.00;48.77
65369;HTU21D;51970;53.484;49.488;2023-03-23T11:02:17;12.00;48.58
65369;HTU21D;51970;53.484;49.488;2023-03-23T11:05:52;12.04;48.48
65369;HTU21D;51970;53.484;49.488;2023-03-23T11:08:13;11.98;49.06
65369;HTU21D;51970;53.484;49.488;2023-03-23T11:11:20;11.99;48.44
65369;HTU21D;51970;53.484;49.488;2023-03-23T11:14:38;11.89;49.11
65369;HTU21D;51970;53.484;49.488;2023-03-23T11:18:03;11.78;49.53
65369;HTU21D;51970;53.484;49.488;2023-03-23T11:21:05;11.72;49.78
65369;HTU21D;51970;53.484;49.488;2023-03-23T11:24:33;11.74;50.21
65369;HTU21D;51970;53.484;49.488;2023-03-23T11:27:28;11.75;50.17
65369;HTU21D;51970;53.484;49.488;2023-03-23T11:30:37;11.76;50.85
65369;HTU21D;51970;53.484;49.488;2023-03-23T11:36:37;11.93;51.25
65369;HTU21D;51970;53.484;49.488;2023-03-23T11:39:47;11.84;51.91
65369;HTU21D;51970;53.484;49.488;2023-03-23T11:42:19;11.78;52.16
65369;HTU21D;51970;53.484;49.488;2023-03-23T11:45:39;11.69;52.56
65369;HTU21D;51970;53.484;49.488;2023-03-23T11:48:30;11.56;53.30
65369;HTU21D;51970;53.484;49.488;2023-03-23T11:52:21;11.57;53.33
65369;HTU21D;51970;53.484;49.488;2023-03-23T11:54:58;11.48;53.53
65369;HTU21D;51970;53.484;49.488;2023-03-23T11:58:12;11.27;53.88
65369;HTU21D;51970;53.484;49.488;2023-03-23T12:01:06;11.02;54.38
65369;HTU21D;51970;53.484;49.488;2023-03-23T12:04:19;10.94;54.67
65369;HTU21D;51970;53.484;49.488;2023-03-23T12:14:40;10.96;54.29
65369;HTU21D;51970;53.484;49.488;2023-03-23T12:20:26;10.72;55.21
65369;HTU21D;51970;53.484;49.488;2023-03-23T12:23:12;10.62;55.65
65369;HTU21D;51970;53.484;49.488;2023-03-23T12:26:21;10.60;55.78
65369;HTU21D;51970;53.484;49.488;2023-03-23T12:32:13;10.43;56.19
65369;HTU21D;51970;53.484;49.488;2023-03-23T12:34:58;10.48;56.24
65369;HTU21D;51970;53.484;49.488;2023-03-23T12:38:23;10.59;55.84
65369;HTU21D;51970;53.484;49.488;2023-03-23T12:41:07;10.59;55.65
65369;HTU21D;51970;53.484;49.488;2023-03-23T12:44:01;10.63;56.02
65369;HTU21D;51970;53.484;49.488;2023-03-23T12:47:45;10.68;56.24
65369;HTU21D;51970;53.484;49.488;2023-03-23T12:51:37;10.72;56.01
65369;HTU21D;51970;53.484;49.488;2023-03-23T12:54:42;10.59;56.74
65369;HTU21D;51970;53.484;49.488;2023-03-23T12:57:56;10.65;56.48
65369;HTU21D;51970;53.484;49.488;2023-03-23T13:00:27;10.71;56.59
65369;HTU21D;51970;53.484;49.488;2023-03-23T13:04:03;10.70;57.03
65369;HTU21D;51970;53.484;49.488;2023-03-23T13:07:35;10.81;56.67
65369;HTU21D;51970;53.484;49.488;2023-03-23T13:10:47;10.77;56.87
65369;HTU21D;51970;53.484;49.488;2023-03-23T13:13:23;10.72;57.34
65369;HTU21D;51970;53.484;49.488;2023-03-23T13:22:52;10.89;56.81
65369;HTU21D;51970;53.484;49.488;2023-03-23T13:25:56;11.00;56.79
65369;HTU21D;51970;53.484;49.488;2023-03-23T13:28:58;10.90;56.75
65369;HTU21D;51970;53.484;49.488;2023-03-23T13:31:39;10.88;56.97
65369;HTU21D;51970;53.484;49.488;2023-03-23T13:34:55;10.95;56.92
65369;HTU21D;51970;53.484;49.488;2023-03-23T13:37:47;10.88;57.06
65369;HTU21D;51970;53.484;49.488;2023-03-23T13:40:48;10.74;57.19
65369;HTU21D;51970;53.484;49.488;2023-03-23T13:43:33;10.64;57.56
65369;HTU21D;51970;53.484;49.488;2023-03-23T13:53:12;10.56;58.01
65369;HTU21D;51970;53.484;49.488;2023-03-23T13:56:40;10.65;57.70
65369;HTU21D;51970;53.484;49.488;2023-03-23T13:59:55;10.67;57.77
65369;HTU21D;51970;53.484;49.488;2023-03-23T14:02:48;10.79;57.44
65369;HTU21D;51970;53.484;49.488;2023-03-23T14:08:37;10.75;57.52
65369;HTU21D;51970;53.484;49.488;2023-03-23T14:11:24;10.71;57.03
65369;HTU21D;51970;53.484;49.488;2023-03-23T14:14:38;10.56;57.42
65369;HTU21D;51970;53.484;49.488;2023-03-23T14:17:25;10.46;58.16
65369;HTU21D;51970;53.484;49.488;2023-03-23T14:20:26;10.38;58.25
65369;HTU21D;51970;53.484;49.488;2023-03-23T14:22:55;10.36;58.09
65369;HTU21D;51970;53.484;49.488;2023-03-23T14:25:31;10.37;58.09
65369;HTU21D;51970;53.484;49.488;2023-03-23T14:28:01;10.29;58.45
65369;HTU21D;51970;53.484;49.488;2023-03-23T14:30:52;10.14;58.70
65369;HTU21D;51970;53.484;49.488;2023-03-23T14:33:25;10.03;59.21
65369;HTU21D;51970;53.484;49.488;2023-03-23T14:36:08;9.91;59.32
65369;HTU21D;51970;53.484;49.488;2023-03-23T14:38:38;9.76;59.96
65369;HTU21D;51970;53.484;49.488;2023-03-23T14:41:10;9.66;60.21
65369;HTU21D;51970;53.484;49.488;2023-03-23T14:43:46;9.65;60.28
65369;HTU21D;51970;53.484;49.488;2023-03-23T14:46:43;9.51;60.73
65369;HTU21D;51970;53.484;49.488;2023-03-23T14:49:22;9.44;61.12
65369;HTU21D;51970;53.484;49.488;2023-03-23T14:51:54;9.34;61.38
65369;HTU21D;51970;53.484;49.488;2023-03-23T14:54:31;9.21;61.76
65369;HTU21D;51970;53.484;49.488;2023-03-23T14:57:36;9.15;62.16
65369;HTU21D;51970;53.484;49.488;2023-03-23T15:00:32;9.09;62.43
65369;HTU21D;51970;53.484;49.488;2023-03-23T15:03:07;9.04;62.69
65369;HTU21D;51970;53.484;49.488;2023-03-23T15:05:50;9.01;62.84
65369;HTU21D;51970;53.484;49.488;2023-03-23T15:08:45;9.01;63.24
65369;HTU21D;51970;53.484;49.488;2023-03-23T15:13:58;9.14;62.86
65369;HTU21D;51970;53.484;49.488;2023-03-23T15:16:37;9.14;63.10
65369;HTU21D;51970;53.484;49.488;2023-03-23T15:19:34;9.06;63.39
65369;HTU21D;51970;53.484;49.488;2023-03-23T15:22:26;9.07;63.53
65369;HTU21D;51970;53.484;49.488;2023-03-23T15:25:32;9.08;63.34
65369;HTU21D;51970;53.484;49.488;2023-03-23T15:28:39;8.95;63.15
65369;HTU21D;51970;53.484;49.488;2023-03-23T15:31:46;8.88;63.23
65369;HTU21D;51970;53.484;49.488;2023-03-23T15:34:46;8.90;63.44
65369;HTU21D;51970;53.484;49.488;2023-03-23T15:37:28;8.77;63.66
65369;HTU21D;51970;53.484;49.488;2023-03-23T15:40:26;8.68;63.99
65369;HTU21D;51970;53.484;49.488;2023-03-23T15:44:20;8.59;64.15
65369;HTU21D;51970;53.484;49.488;2023-03-23T15:47:18;8.52;64.05
65369;HTU21D;51970;53.484;49.488;2023-03-23T15:50:36;8.56;64.11
65369;HTU21D;51970;53.484;49.488;2023-03-23T15:53:34;8.53;63.76
65369;HTU21D;51970;53.484;49.488;2023-03-23T15:56:15;8.51;63.89
65369;HTU21D;51970;53.484;49.488;2023-03-23T15:59:02;8.52;64.01
65369;HTU21D;51970;53.484;49.488;2023-03-23T16:02:42;8.49;63.81
65369;HTU21D;51970;53.484;49.488;2023-03-23T16:05:55;8.47;63.66
65369;HTU21D;51970;53.484;49.488;2023-03-23T16:08:35;8.46;63.73
65369;HTU21D;51970;53.484;49.488;2023-03-23T16:11:20;8.46;63.77
65369;HTU21D;51970;53.484;49.488;2023-03-23T16:14:18;8.46;63.84
65369;HTU21D;51970;53.484;49.488;2023-03-23T16:17:20;8.39;64.02
65369;HTU21D;51970;53.484;49.488;2023-03-23T16:20:30;8.27;64.02
65369;HTU21D;51970;53.484;49.488;2023-03-23T16:23:02;8.19;64.27
65369;HTU21D;51970;53.484;49.488;2023-03-23T16:25:29;8.14;64.46
65369;HTU21D;51970;53.484;49.488;2023-03-23T16:27:59;8.08;64.53
65369;HTU21D;51970;53.484;49.488;2023-03-23T16:30:42;8.00;64.54
65369;HTU21D;51970;53.484;49.488;2023-03-23T16:33:22;7.90;64.68
65369;HTU21D;51970;53.484;49.488;2023-03-23T16:36:34;7.82;64.66
65369;HTU21D;51970;53.484;49.488;2023-03-23T16:39:44;7.69;65.25
65369;HTU21D;51970;53.484;49.488;2023-03-23T16:42:50;7.63;65.72
65369;HTU21D;51970;53.484;49.488;2023-03-23T16:45:59;7.61;65.78
65369;HTU21D;51970;53.484;49.488;2023-03-23T16:49:58;7.65;65.59
65369;HTU21D;51970;53.484;49.488;2023-03-23T16:53:50;7.72;65.65
65369;HTU21D;51970;53.484;49.488;2023-03-23T16:57:10;7.75;65.43
65369;HTU21D;51970;53.484;49.488;2023-03-23T17:00:17;7.82;65.49
65369;HTU21D;51970;53.484;49.488;2023-03-23T17:03:13;7.83;65.43
65369;HTU21D;51970;53.484;49.488;2023-03-23T17:06:01;7.81;65.46
65369;HTU21D;51970;53.484;49.488;2023-03-23T17:09:37;7.75;65.85
65369;HTU21D;51970;53.484;49.488;2023-03-23T17:13:30;7.72;65.71
65369;HTU21D;51970;53.484;49.488;2023-03-23T17:16:32;7.67;65.86
65369;HTU21D;51970;53.484;49.488;2023-03-23T17:19:07;7.70;65.90
65369;HTU21D;51970;53.484;49.488;2023-03-23T17:22:02;7.85;65.59
65369;HTU21D;51970;53.484;49.488;2023-03-23T17:24:32;7.96;65.01
65369;HTU21D;51970;53.484;49.488;2023-03-23T17:27:13;7.89;64.94
65369;HTU21D;51970;53.484;49.488;2023-03-23T17:29:48;7.82;65.34
65369;HTU21D;51970;53.484;49.488;2023-03-23T17:32:21;7.73;65.37
65369;HTU21D;51970;53.484;49.488;2023-03-23T17:34:49;7.65;65.78
65369;HTU21D;51970;53.484;49.488;2023-03-23T17:37:22;7.60;65.91
65369;HTU21D;51970;53.484;49.488;2023-03-23T17:40:26;7.64;65.70
65369;HTU21D;51970;53.484;49.488;2023-03-23T17:43:42;7.57;66.09
65369;HTU21D;51970;53.484;49.488;2023-03-23T17:46:46;7.49;66.30
65369;HTU21D;51970;53.484;49.488;2023-03-23T17:49:43;7.45;66.43
65369;HTU21D;51970;53.484;49.488;2023-03-23T17:52:13;7.39;66.49
65369;HTU21D;51970;53.484;49.488;2023-03-23T17:54:57;7.38;66.46
65369;HTU21D;51970;53.484;49.488;2023-03-23T17:57:23;7.42;66.40
65369;HTU21D;51970;53.484;49.488;2023-03-23T17:59:53;7.35;66.62
65369;HTU21D;51970;53.484;49.488;2023-03-23T18:02:24;7.35;66.59
65369;HTU21D;51970;53.484;49.488;2023-03-23T18:05:10;7.31;66.65
65369;HTU21D;51970;53.484;49.488;2023-03-23T18:07:57;7.29;66.62
65369;HTU21D;51970;53.484;49.488;2023-03-23T18:11:32;7.23;66.79
65369;HTU21D;51970;53.484;49.488;2023-03-23T18:14:33;7.27;66.70
65369;HTU21D;51970;53.484;49.488;2023-03-23T18:17:07;7.29;66.65
65369;HTU21D;51970;53.484;49.488;2023-03-23T18:19:50;7.35;66.40
65369;HTU21D;51970;53.484;49.488;2023-03-23T18:22:29;7.37;66.44
65369;HTU21D;51970;53.484;49.488;2023-03-23T18:25:39;7.35;66.53
65369;HTU21D;51970;53.484;49.488;2023-03-23T18:28:12;7.44;66.54
65369;HTU21D;51970;53.484;49.488;2023-03-23T18:31:09;7.43;66.15